createdAt,value
2023-04-13T00:00:10.973Z,90.48
2023-04-13T00:02:39.509Z,90.80
2023-04-13T00:05:09.288Z,90.40
2023-04-13T00:07:38.915Z,90.42
2023-04-13T00:10:08.729Z,91.06
2023-04-13T00:12:38.071Z,90.93
2023-04-13T00:15:06.722Z,90.91
2023-04-13T00:17:34.654Z,91.44
2023-04-13T00:20:08.165Z,91.41
2023-04-13T00:22:35.788Z,91.18
2023-04-13T00:25:03.539Z,91.54
2023-04-13T00:27:31.271Z,92.14
2023-04-13T00:30:00.223Z,92.25
2023-04-13T00:32:27.818Z,92.51
2023-04-13T00:34:55.625Z,92.80
2023-04-13T00:37:23.275Z,92.20
2023-04-13T00:39:51.620Z,91.72
2023-04-13T00:42:19.914Z,91.41
2023-04-13T00:44:47.696Z,91.09
2023-04-13T00:47:18.528Z,90.69
2023-04-13T00:49:46.113Z,89.98
2023-04-13T00:52:14.071Z,89.92
2023-04-13T00:54:42.457Z,89.50
2023-04-13T00:57:10.103Z,89.61
2023-04-13T00:59:37.824Z,90.20
2023-04-13T01:02:07.597Z,90.11
2023-04-13T01:04:37.624Z,90.07
2023-04-13T01:07:09.725Z,90.30
2023-04-13T01:09:41.781Z,90.00
2023-04-13T01:12:13.163Z,89.49
2023-04-13T01:14:43.233Z,88.57
2023-04-13T01:17:15.363Z,88.19
2023-04-13T01:19:51.605Z,88.24
2023-04-13T01:22:22.637Z,88.40
2023-04-13T01:25:05.748Z,88.55
2023-04-13T01:27:44.555Z,88.43
2023-04-13T01:30:13.350Z,88.15
2023-04-13T01:32:42.037Z,88.17
2023-04-13T01:35:10.779Z,88.06
2023-04-13T01:37:39.145Z,87.91
2023-04-13T01:40:10.211Z,87.81
2023-04-13T01:42:39.420Z,88.01
2023-04-13T01:45:13.031Z,87.02
2023-04-13T01:47:43.497Z,87.04
2023-04-13T01:50:15.280Z,86.92
2023-04-13T01:52:44.093Z,87.11
2023-04-13T01:55:13.588Z,86.51
2023-04-13T01:57:47.176Z,86.07
2023-04-13T02:00:16.308Z,86.63
2023-04-13T02:02:45.173Z,86.78
2023-04-13T02:05:12.964Z,86.82
2023-04-13T02:07:41.704Z,86.72
2023-04-13T02:10:10.186Z,86.94
2023-04-13T02:12:37.933Z,86.92
2023-04-13T02:15:08.105Z,87.34
2023-04-13T02:17:36.849Z,87.59
2023-04-13T02:20:11.141Z,87.75
2023-04-13T02:22:41.381Z,87.35
2023-04-13T02:25:11.302Z,87.75
2023-04-13T02:27:39.610Z,88.21
2023-04-13T02:30:09.937Z,88.48
2023-04-13T02:32:39.565Z,89.14
2023-04-13T02:35:09.818Z,89.26
2023-04-13T02:37:39.336Z,88.73
2023-04-13T02:40:10.243Z,89.49
2023-04-13T02:42:38.454Z,89.36
2023-04-13T02:45:12.059Z,89.96
2023-04-13T02:47:40.338Z,89.50
2023-04-13T02:50:09.454Z,89.49
2023-04-13T02:52:37.193Z,89.58
2023-04-13T02:55:05.695Z,89.27
2023-04-13T02:57:34.191Z,88.94
2023-04-13T03:00:01.816Z,89.02
2023-04-13T03:02:31.175Z,88.85
2023-04-13T03:04:59.542Z,88.48
2023-04-13T03:07:27.167Z,88.71
2023-04-13T03:09:55.403Z,88.96
2023-04-13T03:12:22.974Z,89.98
2023-04-13T03:14:51.535Z,90.39
2023-04-13T03:17:19.938Z,90.11
2023-04-13T03:19:49.537Z,89.85
2023-04-13T03:22:17.435Z,90.48
2023-04-13T03:24:45.054Z,90.35
2023-04-13T03:27:12.614Z,90.27
2023-04-13T03:29:40.246Z,90.01
2023-04-13T03:32:08.160Z,89.92
2023-04-13T03:34:35.839Z,90.06
2023-04-13T03:37:04.742Z,89.67
2023-04-13T03:39:32.301Z,89.13
2023-04-13T03:41:59.866Z,88.96
2023-04-13T03:44:27.454Z,89.52
2023-04-13T03:46:55.088Z,89.00
2023-04-13T03:49:22.738Z,89.15
2023-04-13T03:51:50.927Z,89.37
2023-04-13T03:54:19.867Z,88.89
2023-04-13T03:56:47.488Z,88.62
2023-04-13T03:59:15.231Z,88.81
2023-04-13T04:01:42.911Z,88.88
2023-04-13T04:04:10.840Z,89.16
2023-04-13T04:06:38.490Z,88.75
2023-04-13T04:09:06.730Z,89.08
2023-04-13T04:11:35.771Z,88.76
2023-04-13T04:14:04.592Z,88.35
2023-04-13T04:16:32.593Z,88.85
2023-04-13T04:19:00.198Z,88.87
2023-04-13T04:21:34.358Z,88.96
2023-04-13T04:24:02.176Z,88.91
2023-04-13T04:26:30.172Z,88.66
2023-04-13T04:29:02.121Z,88.26
2023-04-13T04:31:36.760Z,88.12
2023-04-13T04:34:05.014Z,88.49
2023-04-13T04:36:32.558Z,88.48
2023-04-13T04:39:02.617Z,87.94
2023-04-13T04:41:31.429Z,87.94
2023-04-13T04:44:03.394Z,88.33
2023-04-13T04:46:31.261Z,88.52
2023-04-13T04:49:00.759Z,88.86
2023-04-13T04:51:28.545Z,88.82
2023-04-13T04:53:58.685Z,88.96
2023-04-13T04:56:27.044Z,89.21
2023-04-13T04:58:54.736Z,89.51
2023-04-13T05:01:26.519Z,88.76
2023-04-13T05:03:54.617Z,88.86
2023-04-13T05:06:22.531Z,88.70
2023-04-13T05:08:50.152Z,88.83
2023-04-13T05:11:17.792Z,89.34
2023-04-13T05:13:45.410Z,89.59
2023-04-13T05:16:13.124Z,89.47
2023-04-13T05:18:48.824Z,89.63
2023-04-13T05:21:17.653Z,89.45
2023-04-13T05:23:45.448Z,89.59
2023-04-13T05:26:13.873Z,89.57
2023-04-13T05:28:41.809Z,89.68
2023-04-13T05:31:12.506Z,89.56
2023-04-13T05:33:40.187Z,90.11
2023-04-13T05:36:10.016Z,89.73
2023-04-13T05:38:37.635Z,90.04
2023-04-13T05:41:05.504Z,89.96
2023-04-13T05:43:33.160Z,90.61
2023-04-13T05:46:00.823Z,90.71
2023-04-13T05:48:28.564Z,91.32
2023-04-13T05:50:58.208Z,91.37
2023-04-13T05:53:27.295Z,90.82
2023-04-13T05:55:55.341Z,90.39
2023-04-13T05:58:22.996Z,90.66
2023-04-13T06:00:50.678Z,90.08
2023-04-13T06:03:20.622Z,90.39
2023-04-13T06:05:49.328Z,89.59
2023-04-13T06:08:17.146Z,90.48
2023-04-13T06:10:46.128Z,90.43
2023-04-13T06:13:13.832Z,89.37
2023-04-13T06:15:41.507Z,89.68
2023-04-13T06:18:09.216Z,89.23
2023-04-13T06:20:36.885Z,88.93
2023-04-13T06:23:04.502Z,88.41
2023-04-13T06:25:32.390Z,88.97
2023-04-13T06:28:04.373Z,88.83
2023-04-13T06:30:31.957Z,88.46
2023-04-13T06:32:59.627Z,88.65
2023-04-13T06:35:27.355Z,88.63
2023-04-13T06:37:55.731Z,89.76
2023-04-13T06:40:23.378Z,89.41
2023-04-13T06:42:51.075Z,89.35
2023-04-13T06:45:20.614Z,88.58
2023-04-13T06:47:48.788Z,88.43
2023-04-13T06:50:17.042Z,87.34
2023-04-13T06:52:45.764Z,87.06
2023-04-13T06:55:13.494Z,86.99
2023-04-13T06:57:41.882Z,87.11
2023-04-13T07:00:26.052Z,86.16
2023-04-13T07:02:58.226Z,86.61
2023-04-13T07:05:26.221Z,85.56
2023-04-13T07:07:54.000Z,85.55
2023-04-13T07:10:21.893Z,85.48
2023-04-13T07:12:49.680Z,85.89
2023-04-13T07:15:17.459Z,85.41
2023-04-13T07:17:45.217Z,85.47
2023-04-13T07:20:14.603Z,86.08
2023-04-13T07:22:42.180Z,87.10
2023-04-13T07:25:10.231Z,87.00
2023-04-13T07:27:37.904Z,87.74
2023-04-13T07:30:08.396Z,86.85
2023-04-13T07:32:36.071Z,86.04
2023-04-13T07:35:03.977Z,86.10
2023-04-13T07:37:33.030Z,86.38
2023-04-13T07:40:00.626Z,86.87
2023-04-13T07:42:28.352Z,87.11
2023-04-13T07:44:56.437Z,86.76
2023-04-13T07:47:24.087Z,86.55
2023-04-13T07:49:51.702Z,86.57
2023-04-13T07:52:20.674Z,87.00
2023-04-13T07:54:49.709Z,87.73
2023-04-13T07:57:21.302Z,87.39
2023-04-13T07:59:52.162Z,86.68
2023-04-13T08:02:22.503Z,87.24
2023-04-13T08:04:50.783Z,87.23
2023-04-13T08:07:18.687Z,86.06
2023-04-13T08:09:48.655Z,85.47
2023-04-13T08:12:17.905Z,85.83
2023-04-13T08:14:45.608Z,85.38
2023-04-13T08:17:13.360Z,85.57
2023-04-13T08:19:41.146Z,85.10
2023-04-13T08:22:10.795Z,85.29
2023-04-13T08:24:38.683Z,85.45
2023-04-13T08:27:07.908Z,85.03
2023-04-13T08:29:36.814Z,84.99
2023-04-13T08:32:04.887Z,84.11
2023-04-13T08:34:32.640Z,85.06
2023-04-13T08:37:00.272Z,85.24
2023-04-13T08:39:27.879Z,84.87
2023-04-13T08:41:56.725Z,84.35
2023-04-13T08:44:24.799Z,84.88
2023-04-13T08:46:53.801Z,84.29
2023-04-13T08:49:21.527Z,83.70
2023-04-13T08:51:50.089Z,82.87
2023-04-13T08:54:17.681Z,82.51
2023-04-13T08:56:47.219Z,83.04
2023-04-13T08:59:16.273Z,82.86
2023-04-13T09:01:44.838Z,83.33
2023-04-13T09:04:17.814Z,83.55
2023-04-13T09:06:47.960Z,82.73
2023-04-13T09:09:15.838Z,81.82
2023-04-13T09:11:45.736Z,81.11
2023-04-13T09:14:13.655Z,80.17
2023-04-13T09:16:42.049Z,79.88
2023-04-13T09:19:10.473Z,79.71
2023-04-13T09:21:40.432Z,79.67
2023-04-13T09:24:08.581Z,79.80
2023-04-13T09:26:43.226Z,79.84
2023-04-13T09:29:13.850Z,78.68
2023-04-13T09:31:44.939Z,78.54
2023-04-13T09:34:13.714Z,78.68
2023-04-13T09:36:54.223Z,78.10
2023-04-13T09:39:28.602Z,77.91
2023-04-13T09:41:58.101Z,77.31
2023-04-13T09:44:28.768Z,77.09
2023-04-13T09:46:59.963Z,78.36
2023-04-13T09:49:27.866Z,78.18
2023-04-13T09:51:57.368Z,78.94
2023-04-13T09:54:25.083Z,77.42
2023-04-13T09:56:54.619Z,78.24
2023-04-13T09:59:23.724Z,79.08
2023-04-13T10:01:51.715Z,78.20
2023-04-13T10:04:19.444Z,78.34
2023-04-13T10:06:48.334Z,77.77
2023-04-13T10:09:17.339Z,78.20
2023-04-13T10:11:47.090Z,77.05
2023-04-13T10:14:17.082Z,76.30
2023-04-13T10:16:59.655Z,78.48
2023-04-13T10:19:30.874Z,79.43
2023-04-13T10:21:58.858Z,78.98
2023-04-13T10:24:28.776Z,78.75
2023-04-13T10:26:58.582Z,77.44
2023-04-13T10:29:29.736Z,77.54
2023-04-13T10:32:03.937Z,79.21
2023-04-13T10:34:34.092Z,80.04
2023-04-13T10:37:03.993Z,80.82
2023-04-13T10:39:34.962Z,81.46
2023-04-13T10:42:03.648Z,81.57
2023-04-13T10:44:42.280Z,83.18
2023-04-13T10:47:11.187Z,82.56
2023-04-13T10:49:42.579Z,79.92
2023-04-13T10:52:11.279Z,78.83
2023-04-13T10:54:41.193Z,79.33
2023-04-13T10:57:11.057Z,80.42
2023-04-13T10:59:55.636Z,79.26
2023-04-13T11:02:26.112Z,79.35
2023-04-13T11:04:54.219Z,79.36
2023-04-13T11:07:23.805Z,80.11
2023-04-13T11:10:02.821Z,79.31
2023-04-13T11:12:31.200Z,78.94
2023-04-13T11:14:59.030Z,78.98
2023-04-13T11:17:27.073Z,76.64
2023-04-13T11:19:56.213Z,72.69
2023-04-13T11:22:27.643Z,72.86
2023-04-13T11:25:07.306Z,72.52
2023-04-13T11:27:34.971Z,71.32
2023-04-13T11:30:06.044Z,72.45
2023-04-13T11:32:34.218Z,70.48
2023-04-13T11:35:09.404Z,70.22
2023-04-13T11:37:38.414Z,70.39
2023-04-13T11:40:15.040Z,71.51
2023-04-13T11:42:44.580Z,69.32
2023-04-13T11:45:14.659Z,70.32
2023-04-13T11:47:42.416Z,69.53
2023-04-13T11:50:10.538Z,69.10
2023-04-13T11:52:39.167Z,69.27
2023-04-13T11:55:21.598Z,68.44
2023-04-13T11:57:51.058Z,68.89
2023-04-13T12:00:23.986Z,72.61
2023-04-13T12:03:02.067Z,73.19
2023-04-13T12:05:32.844Z,70.91
2023-04-13T12:08:04.239Z,69.65
2023-04-13T12:10:42.327Z,71.43
2023-04-13T12:16:02.308Z,78.10
2023-04-13T12:18:43.102Z,77.95
2023-04-13T12:21:16.260Z,78.14
2023-04-13T12:23:53.188Z,78.79
2023-04-13T12:28:56.427Z,80.85
2023-04-13T12:31:24.265Z,79.32
2023-04-13T12:33:52.250Z,77.41
2023-04-13T12:36:19.863Z,75.81
2023-04-13T12:38:47.469Z,72.49
2023-04-13T12:41:15.021Z,71.16
2023-04-13T12:43:44.114Z,70.90
2023-04-13T12:46:11.705Z,73.58
2023-04-13T12:48:39.429Z,75.66
2023-04-13T12:51:07.103Z,78.32
2023-04-13T12:53:35.424Z,79.25
2023-04-13T12:56:03.452Z,82.74
2023-04-13T12:58:31.666Z,88.03
2023-04-13T13:01:01.299Z,87.67
2023-04-13T13:03:28.958Z,87.87
2023-04-13T13:05:57.304Z,88.80
2023-04-13T13:08:24.879Z,90.20
2023-04-13T13:10:52.588Z,90.16
2023-04-13T13:13:20.260Z,87.34
2023-04-13T13:15:47.853Z,87.08
2023-04-13T13:18:16.842Z,86.61
2023-04-13T13:20:45.544Z,89.79
2023-04-13T13:23:13.562Z,89.26
2023-04-13T13:25:52.447Z,87.92
2023-04-13T13:28:30.332Z,89.89
2023-04-13T13:30:58.070Z,90.36
2023-04-13T13:33:27.021Z,90.06
2023-04-13T13:35:54.633Z,88.04
2023-04-13T13:38:22.301Z,87.64
2023-04-13T13:40:49.946Z,89.09
2023-04-13T13:43:21.380Z,89.92
2023-04-13T13:45:49.107Z,90.36
2023-04-13T13:48:16.846Z,89.18
2023-04-13T13:50:45.893Z,89.21
2023-04-13T13:53:13.708Z,88.51
2023-04-13T13:55:41.577Z,89.90
2023-04-13T13:58:09.242Z,89.99
2023-04-13T14:00:36.913Z,90.45
2023-04-13T14:03:04.711Z,90.46
2023-04-13T14:05:32.420Z,90.01
2023-04-13T14:08:01.409Z,88.86
2023-04-13T14:10:29.089Z,87.35
2023-04-13T14:13:00.015Z,84.75
2023-04-13T14:15:27.721Z,80.99
2023-04-13T14:18:09.084Z,85.07
2023-04-13T14:20:39.918Z,88.96
2023-04-13T14:23:10.032Z,91.36
2023-04-13T14:25:38.485Z,90.99
2023-04-13T14:28:06.963Z,90.89
2023-04-13T14:30:34.620Z,93.93
2023-04-13T14:33:02.438Z,95.06
2023-04-13T14:35:30.088Z,96.38
2023-04-13T14:37:57.852Z,93.68
2023-04-13T14:40:28.218Z,93.59
2023-04-13T14:42:55.902Z,96.40
2023-04-13T14:45:23.907Z,95.81
2023-04-13T14:47:53.612Z,96.00
2023-04-13T14:50:21.549Z,95.64
2023-04-13T14:52:50.084Z,97.28
2023-04-13T14:55:18.269Z,97.81
2023-04-13T14:57:47.332Z,98.56
2023-04-13T15:00:21.499Z,97.40
2023-04-13T15:02:50.487Z,100.00
2023-04-13T15:05:18.717Z,100.00
2023-04-13T15:07:47.164Z,100.00
2023-04-13T15:10:14.859Z,100.00
2023-04-13T15:12:43.955Z,99.85
2023-04-13T15:15:13.201Z,100.00
2023-04-13T15:17:40.795Z,100.00
2023-04-13T15:20:10.535Z,98.91
2023-04-13T15:22:38.353Z,95.00
2023-04-13T15:25:07.094Z,93.89
2023-04-13T15:27:35.297Z,94.34
2023-04-13T15:30:03.292Z,95.12
2023-04-13T15:32:34.744Z,94.61
2023-04-13T15:35:02.440Z,93.92
2023-04-13T15:37:30.066Z,94.87
2023-04-13T15:39:57.748Z,94.63
2023-04-13T15:42:26.198Z,93.44
2023-04-13T15:44:55.052Z,93.54
2023-04-13T15:47:23.467Z,93.21
2023-04-13T15:49:52.427Z,92.81
2023-04-13T15:52:20.029Z,94.24
2023-04-13T15:54:47.757Z,95.02
2023-04-13T15:57:15.688Z,93.75
2023-04-13T15:59:43.367Z,92.13
2023-04-13T16:02:11.184Z,91.88
2023-04-13T16:04:39.095Z,91.27
2023-04-13T16:07:13.616Z,89.60
2023-04-13T16:09:44.836Z,89.50
2023-04-13T16:12:12.539Z,88.96
2023-04-13T16:14:41.911Z,88.61
2023-04-13T16:17:10.284Z,86.58
2023-04-13T16:19:38.125Z,84.38
2023-04-13T16:22:06.435Z,85.28
2023-04-13T16:24:35.810Z,86.69
2023-04-13T16:27:03.460Z,84.42
2023-04-13T16:29:32.361Z,85.79
2023-04-13T16:31:59.983Z,86.77
2023-04-13T16:34:28.572Z,85.50
2023-04-13T16:36:56.179Z,83.10
2023-04-13T16:39:23.790Z,82.71
2023-04-13T16:41:52.799Z,82.74
2023-04-13T16:44:20.472Z,83.30
2023-04-13T16:46:48.043Z,84.28
2023-04-13T16:49:15.684Z,84.87
2023-04-13T16:51:43.390Z,85.62
2023-04-13T16:54:13.665Z,86.75
2023-04-13T16:56:41.382Z,86.55
2023-04-13T16:59:10.261Z,86.90
2023-04-13T17:01:39.745Z,86.56
2023-04-13T17:04:07.743Z,86.93
2023-04-13T17:06:37.283Z,88.14
2023-04-13T17:09:05.210Z,88.50
2023-04-13T17:11:32.859Z,88.48
2023-04-13T17:14:00.506Z,89.29
2023-04-13T17:16:30.059Z,89.20
2023-04-13T17:18:57.981Z,88.73
2023-04-13T17:21:25.830Z,88.59
2023-04-13T17:23:53.399Z,88.25
2023-04-13T17:26:20.989Z,89.07
2023-04-13T17:28:48.501Z,89.51
2023-04-13T17:31:16.600Z,89.21
2023-04-13T17:33:46.213Z,89.71
2023-04-13T17:36:14.836Z,89.44
2023-04-13T17:38:42.418Z,89.56
2023-04-13T17:41:10.479Z,90.09
2023-04-13T17:43:39.479Z,90.40
2023-04-13T17:46:08.397Z,91.68
2023-04-13T17:48:36.140Z,91.96
2023-04-13T17:51:07.580Z,92.19
2023-04-13T17:53:36.313Z,92.89
2023-04-13T17:56:03.989Z,93.20
2023-04-13T17:58:31.614Z,93.21
2023-04-13T18:00:59.169Z,94.69
2023-04-13T18:03:27.198Z,95.37
2023-04-13T18:05:55.006Z,96.24
2023-04-13T18:08:23.935Z,96.52
2023-04-13T18:10:51.488Z,97.00
2023-04-13T18:13:19.132Z,96.43
2023-04-13T18:15:49.819Z,95.94
2023-04-13T18:18:17.732Z,97.83
2023-04-13T18:20:46.740Z,98.09
2023-04-13T18:23:14.377Z,97.45
2023-04-13T18:25:43.296Z,98.26
2023-04-13T18:28:11.044Z,97.98
2023-04-13T18:30:38.828Z,98.56
2023-04-13T18:33:06.495Z,97.72
2023-04-13T18:35:35.024Z,96.28
2023-04-13T18:38:02.656Z,96.72
2023-04-13T18:40:30.351Z,97.94
2023-04-13T18:43:02.081Z,98.18
2023-04-13T18:45:29.709Z,98.12
2023-04-13T18:47:57.377Z,98.71
2023-04-13T18:50:26.465Z,98.41
2023-04-13T18:52:54.088Z,98.75
2023-04-13T18:55:23.110Z,99.01
2023-04-13T18:57:51.888Z,98.97
2023-04-13T19:00:21.340Z,99.51
2023-04-13T19:02:49.688Z,98.66
2023-04-13T19:05:18.155Z,99.00
2023-04-13T19:07:58.655Z,99.82
2023-04-13T19:10:27.777Z,100.00
2023-04-13T19:12:55.776Z,100.00
2023-04-13T19:15:24.990Z,100.00
2023-04-13T19:17:53.234Z,100.00
2023-04-13T19:20:22.945Z,100.00
2023-04-13T19:22:50.692Z,100.00
2023-04-13T19:25:18.336Z,100.00
2023-04-13T19:27:47.204Z,100.00
2023-04-13T19:30:16.121Z,100.00
2023-04-13T19:32:47.262Z,100.00
2023-04-13T19:35:14.885Z,100.00
2023-04-13T19:37:42.668Z,100.00
2023-04-13T19:40:13.505Z,100.00
2023-04-13T19:42:42.406Z,99.85
2023-04-13T19:45:10.776Z,99.81
2023-04-13T19:47:39.099Z,99.91
2023-04-13T19:50:10.375Z,99.66
2023-04-13T19:52:38.970Z,100.00
2023-04-13T19:55:07.526Z,100.00
2023-04-13T19:57:36.704Z,99.78
2023-04-13T20:00:16.803Z,99.89
2023-04-13T20:02:46.983Z,99.81
2023-04-13T20:05:16.840Z,100.00
2023-04-13T20:07:44.527Z,100.00
2023-04-13T20:10:13.038Z,100.00
2023-04-13T20:12:40.676Z,100.00
2023-04-13T20:15:09.014Z,100.00
2023-04-13T20:17:36.715Z,100.00
2023-04-13T20:20:06.404Z,100.00
2023-04-13T20:22:35.384Z,100.00
2023-04-13T20:25:03.432Z,100.00
2023-04-13T20:27:31.033Z,100.00
2023-04-13T20:29:58.548Z,100.00
2023-04-13T20:32:26.383Z,100.00
2023-04-13T20:34:55.428Z,100.00
2023-04-13T20:37:23.065Z,99.66
2023-04-13T20:39:52.804Z,99.76
2023-04-13T20:42:21.776Z,100.00
2023-04-13T20:44:57.092Z,100.00
2023-04-13T20:47:25.748Z,99.62
2023-04-13T20:49:57.018Z,99.70
2023-04-13T20:52:25.818Z,100.00
2023-04-13T20:54:55.391Z,100.00
2023-04-13T20:57:23.428Z,100.00
2023-04-13T20:59:51.764Z,100.00
2023-04-13T21:02:19.535Z,100.00
2023-04-13T21:04:47.229Z,100.00
2023-04-13T21:07:16.281Z,100.00
2023-04-13T21:09:44.356Z,100.00
2023-04-13T21:12:13.277Z,100.00
2023-04-13T21:14:41.136Z,100.00
2023-04-13T21:17:08.683Z,100.00
2023-04-13T21:19:37.820Z,100.00
2023-04-13T21:22:06.018Z,100.00
2023-04-13T21:24:33.628Z,100.00
2023-04-13T21:27:01.264Z,100.00
2023-04-13T21:29:30.187Z,100.00
2023-04-13T21:31:58.061Z,100.00
2023-04-13T21:34:27.214Z,100.00
2023-04-13T21:36:54.861Z,100.00
2023-04-13T21:39:22.428Z,100.00
2023-04-13T21:41:49.965Z,100.00
2023-04-13T21:44:29.217Z,100.00
2023-04-13T21:46:59.249Z,100.00
2023-04-13T21:49:27.147Z,100.00
2023-04-13T21:51:54.703Z,100.00
2023-04-13T21:54:22.259Z,100.00
2023-04-13T21:56:50.026Z,100.00
2023-04-13T21:59:17.587Z,100.00
2023-04-13T22:01:45.838Z,100.00
2023-04-13T22:04:15.370Z,100.00
2023-04-13T22:06:43.196Z,100.00
2023-04-13T22:09:12.306Z,100.00
2023-04-13T22:11:40.900Z,100.00
2023-04-13T22:14:08.588Z,100.00
2023-04-13T22:16:36.231Z,100.00
2023-04-13T22:19:03.933Z,100.00
2023-04-13T22:21:35.355Z,100.00
2023-04-13T22:24:03.063Z,100.00
2023-04-13T22:26:31.089Z,100.00
2023-04-13T22:28:58.973Z,100.00
2023-04-13T22:31:26.935Z,100.00
2023-04-13T22:33:54.581Z,100.00
2023-04-13T22:36:22.450Z,100.00
2023-04-13T22:38:51.937Z,100.00
2023-04-13T22:41:19.906Z,100.00
2023-04-13T22:43:47.714Z,100.00
2023-04-13T22:46:15.669Z,100.00
2023-04-13T22:48:43.422Z,100.00
2023-04-13T22:51:11.058Z,100.00
2023-04-13T22:53:38.824Z,100.00
2023-04-13T22:56:08.597Z,100.00
2023-04-13T22:58:36.513Z,100.00
2023-04-13T23:01:04.601Z,100.00
2023-04-13T23:03:32.393Z,100.00
2023-04-13T23:06:00.297Z,100.00
2023-04-13T23:08:29.246Z,100.00
2023-04-13T23:10:57.077Z,100.00
2023-04-13T23:13:26.310Z,100.00
2023-04-13T23:16:00.152Z,100.00
2023-04-13T23:18:28.159Z,100.00
2023-04-13T23:20:55.846Z,100.00
2023-04-13T23:23:23.707Z,100.00
2023-04-13T23:25:51.382Z,100.00
2023-04-13T23:28:18.995Z,100.00
2023-04-13T23:30:47.982Z,100.00
2023-04-13T23:33:15.783Z,100.00
2023-04-13T23:35:43.353Z,100.00
2023-04-13T23:38:10.944Z,100.00
2023-04-13T23:40:38.561Z,100.00
2023-04-13T23:43:06.132Z,100.00
2023-04-13T23:45:33.830Z,100.00
2023-04-13T23:48:03.888Z,100.00
2023-04-13T23:50:31.763Z,100.00
2023-04-13T23:52:59.666Z,100.00
2023-04-13T23:55:27.438Z,100.00
2023-04-13T23:57:55.013Z,100.00
